< Typhoon 200806 2008 Season Typhoon 200808 >
Typhoon 200807 (KALMAEGI)
General InformationTrack Information on Google MapsDetailed Wind InformationAccess Analytics MapList of All Images || NewsDisaster Info.WeblogTrackbackTyphoon FrontTyphoon ImaginationResourceGoogle EarthGE AnimationAtom FeedGeoJSON
Detalied Best Track (Time Zone = UTC)
Year Month Day Hour Lat. Long. Pressure (hPa) Wind (kt) Class Image Chart
2008 7 13 06 20.1 126.3 1004 0 2 Image Chart
2008 7 13 12 20.2 126.2 1006 0 2 Image Chart
2008 7 13 18 20.2 126.0 1004 0 2 Image Chart
2008 7 14 00 19.8 125.6 1004 0 2 Image Chart
2008 7 14 06 19.3 125.2 1004 0 2 Image Chart
2008 7 14 12 18.7 124.8 1004 0 2 Image Chart
2008 7 14 18 18.4 124.5 1000 0 2 Image Chart
2008 7 15 00 17.9 124.2 1000 0 2 Image Chart
2008 7 15 06 17.9 123.9 996 35 3 Image Chart
2008 7 15 12 18.1 123.7 994 40 3 Image Chart
2008 7 15 18 18.5 123.9 992 40 3 Image Chart
2008 7 16 00 18.9 124.1 990 45 3 Image Chart
2008 7 16 06 19.4 123.9 985 50 4 Image Chart
2008 7 16 12 20.2 123.6 985 50 4 Image Chart
2008 7 16 18 21.2 123.3 980 55 4 Image Chart
2008 7 16 21 21.8 123.1 980 55 4 Image Chart
2008 7 17 00 22.4 122.9 975 60 4 Image Chart
2008 7 17 03 22.7 122.6 975 60 4 Image Chart
2008 7 17 06 23.2 122.3 970 65 5 Image Chart
2008 7 17 09 23.7 122.1 970 65 5 Image Chart
2008 7 17 12 24.2 121.7 975 60 4 Image Chart
2008 7 17 15 24.4 121.6 980 55 4 Image Chart
2008 7 17 18 24.6 121.5 985 50 4 Image Chart
2008 7 17 21 24.9 121.3 990 45 3 Image Chart
2008 7 18 00 25.2 121.2 992 40 3 Image Chart
2008 7 18 06 26.1 120.5 994 35 3 Image Chart
2008 7 18 12 26.3 120.0 994 35 3 Image Chart
2008 7 18 18 26.9 119.7 996 0 2 Image Chart
2008 7 19 00 28.6 120.5 996 0 2 Image Chart
2008 7 19 06 30.0 120.6 998 0 2 Image Chart
2008 7 19 12 31.3 121.0 998 0 2 Image Chart
2008 7 19 18 32.9 121.5 998 0 2 Image Chart
2008 7 20 00 34.4 122.5 998 0 2 Image Chart
2008 7 20 06 36.2 124.0 998 0 2 Image Chart
2008 7 20 12 37.6 125.2 996 0 6 Image Chart
2008 7 20 18 38.4 126.3 994 0 6 Image Chart
2008 7 21 00 39.2 128.7 998 0 6 Image Chart
2008 7 21 06 40.1 130.4 998 0 6 Image Chart
2008 7 21 12 41.0 131.3 1000 0 6 Image Chart
2008 7 21 18 42.0 132.3 1000 0 6 Image Chart
2008 7 22 00 42.7 133.1 1002 0 6 Image Chart
2008 7 22 06 43.3 134.6 1002 0 6 Image Chart
2008 7 22 12 44.2 136.2 1002 0 6 Image Chart
2008 7 22 18 44.8 137.8 1002 0 6 Image Chart
2008 7 23 00 45.2 139.6 1004 0 6 Image Chart
2008 7 23 06 45.7 140.6 1004 0 6 Image Chart
2008 7 23 12 46.1 142.1 1004 0 6 Image Chart
2008 7 23 18 46.4 143.1 1006 0 6 Image Chart
2008 7 24 00 46.7 144.2 1006 0 6 Image Chart
2008 7 24 06 47.1 145.0 1004 0 6 Image Chart
Japan Meteorological Agency Best Track Data | Correction Date : 2008-08-27
< Typhoon 200806 2008 Season Typhoon 200808 >

Help